Time;durP1;ratioP1;P1;durP2;ratioP2;P2;SDS_P1;SDS_P2;PMS_P1;PMS_P2;Temp;Humidity;BMP_temperature;BMP_pressure;BME280_temperature;BME280_humidity;BME280_pressure;Samples;Min_cycle;Max_cycle;Signal;HPM_P1;HPM_P2
2022/03/12 00:00:48;;;;;;;7.13;3.80;;;6.80;45.10;;;;;;4163309;28;20175;-87
2022/03/12 00:02:50;;;;;;;7.60;4.25;;;7.40;45.30;;;;;;4163332;28;20415;-87
2022/03/12 00:04:51;;;;;;;8.40;4.10;;;7.80;46.10;;;;;;4179535;28;20125;-86
2022/03/12 00:06:53;;;;;;;9.15;4.60;;;7.50;45.30;;;;;;4179215;28;20430;-88
2022/03/12 00:08:55;;;;;;;13.20;4.30;;;7.00;45.00;;;;;;4175667;28;20037;-87
2022/03/12 00:10:56;;;;;;;7.75;3.95;;;5.80;44.30;;;;;;4160728;28;20534;-87
2022/03/12 00:12:57;;;;;;;10.80;4.70;;;7.50;45.30;;;;;;4176704;28;20222;-86
2022/03/12 00:14:58;;;;;;;13.07;4.53;;;7.10;45.00;;;;;;4161333;28;20050;-87
2022/03/12 00:17:03;;;;;;;6.13;3.60;;;7.50;45.10;;;;;;4179490;28;20065;-87
2022/03/12 00:19:06;;;;;;;8.82;4.30;;;6.80;44.90;;;;;;4179035;28;20142;-87
2022/03/12 00:21:07;;;;;;;9.55;3.97;;;7.00;45.00;;;;;;4180204;28;20510;-88
2022/03/12 00:23:11;;;;;;;7.90;3.80;;;7.30;45.20;;;;;;4179235;28;20041;-87
2022/03/12 00:25:14;;;;;;;9.85;4.03;;;7.30;45.10;;;;;;4163250;28;20045;-86
2022/03/12 00:27:16;;;;;;;8.90;3.83;;;6.80;44.90;;;;;;4179599;28;20049;-87
2022/03/12 00:29:20;;;;;;;10.18;4.20;;;7.00;45.00;;;;;;4181327;28;20484;-86
2022/03/12 00:31:22;;;;;;;10.75;4.70;;;6.80;45.00;;;;;;4182881;28;20041;-86
2022/03/12 00:33:25;;;;;;;8.00;4.20;;;6.80;44.90;;;;;;4182174;28;20060;-86
2022/03/12 00:35:26;;;;;;;9.80;5.07;;;7.10;45.00;;;;;;4182180;28;20059;-86
2022/03/12 00:37:26;;;;;;;8.73;5.05;;;7.00;45.00;;;;;;4181927;28;20127;-86
2022/03/12 00:39:27;;;;;;;10.93;4.78;;;7.10;45.10;;;;;;4198902;28;20036;-86
2022/03/12 00:41:28;;;;;;;8.20;4.35;;;6.80;45.00;;;;;;4165552;28;20077;-86
2022/03/12 00:43:29;;;;;;;10.10;4.35;;;6.70;44.90;;;;;;4170444;28;20041;-87
2022/03/12 00:45:30;;;;;;;9.48;4.13;;;6.70;45.00;;;;;;4181917;28;20379;-87
2022/03/12 00:47:31;;;;;;;8.52;4.65;;;7.20;45.30;;;;;;4184133;28;20107;-87
2022/03/12 00:49:32;;;;;;;9.30;4.78;;;6.70;45.20;;;;;;4182816;28;20111;-87
2022/03/12 00:51:33;;;;;;;12.73;4.90;;;6.70;45.20;;;;;;4183228;28;20132;-87
2022/03/12 00:53:34;;;;;;;6.50;4.00;;;6.60;45.40;;;;;;4182880;28;20045;-86
2022/03/12 00:55:37;;;;;;;14.70;4.88;;;6.60;45.30;;;;;;4166197;28;20552;-87
2022/03/12 00:57:38;;;;;;;25.13;6.78;;;6.60;45.40;;;;;;4166693;28;20044;-86
2022/03/12 00:59:42;;;;;;;10.40;4.40;;;6.80;45.60;;;;;;4165789;28;20207;-87
2022/03/12 01:01:43;;;;;;;12.38;4.57;;;6.60;45.50;;;;;;4183088;28;20049;-87
2022/03/12 01:03:44;;;;;;;8.77;4.18;;;6.90;45.90;;;;;;4182214;28;20501;-88
2022/03/12 01:05:53;;;;;;;10.50;4.70;;;6.60;45.90;;;;;;4182103;28;20041;-86
2022/03/12 01:07:54;;;;;;;12.05;5.50;;;6.70;46.10;;;;;;4183558;28;20499;-86
2022/03/12 01:09:56;;;;;;;7.85;3.95;;;7.00;46.50;;;;;;4181935;28;20043;-86
2022/03/12 01:11:57;;;;;;;8.90;4.07;;;7.60;46.80;;;;;;4165522;28;20045;-86
2022/03/12 01:13:59;;;;;;;7.85;4.57;;;7.50;46.80;;;;;;4165496;28;20045;-87
2022/03/12 01:16:00;;;;;;;8.70;3.80;;;6.80;46.70;;;;;;4182308;28;20056;-87
2022/03/12 01:18:02;;;;;;;9.30;5.43;;;6.50;46.70;;;;;;4181273;28;20051;-86
2022/03/12 01:20:06;;;;;;;10.73;4.55;;;6.40;46.70;;;;;;4166066;28;20408;-86
2022/03/12 01:22:07;;;;;;;13.50;4.53;;;6.40;46.50;;;;;;4183753;28;20073;-86
2022/03/12 01:24:08;;;;;;;9.18;4.60;;;6.40;46.80;;;;;;4165779;28;20176;-87
2022/03/12 01:26:11;;;;;;;11.05;4.20;;;6.40;46.80;;;;;;4180731;28;20045;-86
2022/03/12 01:28:14;;;;;;;10.27;3.88;;;6.40;46.50;;;;;;4197906;28;20564;-86
2022/03/12 01:30:27;;;;;;;10.20;4.25;;;6.40;46.60;;;;;;4182773;28;20045;-86
2022/03/12 01:32:27;;;;;;;11.25;5.43;;;6.40;47.00;;;;;;4182477;28;20122;-86
2022/03/12 01:34:29;;;;;;;7.43;3.97;;;7.00;47.50;;;;;;4180874;28;20052;-86
2022/03/12 01:36:31;;;;;;;9.10;3.75;;;6.40;47.50;;;;;;4181426;28;20056;-87
2022/03/12 01:38:46;;;;;;;9.07;5.05;;;7.30;47.60;;;;;;4182467;28;20076;-85
2022/03/12 01:40:47;;;;;;;7.22;3.88;;;6.50;47.20;;;;;;4180882;28;20063;-87
2022/03/12 01:42:48;;;;;;;7.40;4.03;;;6.30;47.00;;;;;;4181358;28;20064;-86
2022/03/12 01:44:50;;;;;;;11.32;4.57;;;6.30;47.00;;;;;;4182448;28;20068;-86
2022/03/12 01:46:51;;;;;;;7.47;4.43;;;6.60;47.10;;;;;;4181124;28;20041;-86
2022/03/12 01:48:52;;;;;;;9.95;4.65;;;7.20;47.70;;;;;;4182559;28;20051;-86
2022/03/12 01:50:53;;;;;;;12.48;4.55;;;6.30;47.10;;;;;;4182084;28;20103;-86
2022/03/12 01:52:59;;;;;;;19.77;5.88;;;7.10;47.40;;;;;;4181916;28;20041;-86
2022/03/12 01:55:04;;;;;;;14.98;5.20;;;6.90;47.20;;;;;;4181621;28;20063;-86
2022/03/12 01:57:05;;;;;;;7.70;4.10;;;6.30;46.90;;;;;;4182081;28;20040;-86
2022/03/12 01:59:07;;;;;;;11.63;4.18;;;6.30;47.10;;;;;;4180933;28;20140;-85
2022/03/12 02:01:08;;;;;;;9.02;4.68;;;6.30;46.90;;;;;;4181241;28;20044;-86
2022/03/12 02:03:08;;;;;;;6.80;4.43;;;6.30;47.10;;;;;;4181635;28;20041;-86
2022/03/12 02:05:13;;;;;;;10.20;4.70;;;7.50;47.60;;;;;;4181057;28;20049;-87
2022/03/12 02:07:14;;;;;;;9.38;4.72;;;6.20;46.60;;;;;;4182341;28;20552;-86
2022/03/12 02:09:16;;;;;;;10.52;5.00;;;6.30;46.90;;;;;;4181463;28;20040;-86
2022/03/12 02:11:29;;;;;;;8.95;4.35;;;7.10;47.50;;;;;;4164835;28;20045;-86
2022/03/12 02:13:35;;;;;;;8.93;4.72;;;6.90;47.00;;;;;;4180921;28;20538;-86
2022/03/12 02:15:36;;;;;;;9.50;4.97;;;6.30;47.10;;;;;;4164277;28;20514;-87
2022/03/12 02:17:38;;;;;;;9.75;4.50;;;6.80;47.20;;;;;;4181017;28;20049;-86
2022/03/12 02:19:40;;;;;;;14.05;5.60;;;6.90;47.20;;;;;;4164367;28;20052;-86
2022/03/12 02:21:58;;;;;;;10.52;4.40;;;6.20;46.90;;;;;;4182566;28;20044;-87
2022/03/12 02:23:59;;;;;;;8.07;4.63;;;6.30;47.00;;;;;;4164366;28;20085;-86
2022/03/12 02:26:02;;;;;;;10.25;4.85;;;6.50;47.20;;;;;;4163933;28;20045;-86
2022/03/12 02:28:17;;;;;;;10.60;4.97;;;6.20;46.90;;;;;;4181967;28;20049;-87
2022/03/12 02:30:19;;;;;;;7.50;4.00;;;6.20;47.10;;;;;;4164131;28;20495;-87
2022/03/12 02:32:20;;;;;;;10.20;4.75;;;7.60;47.70;;;;;;4181557;28;20063;-87
2022/03/12 02:34:30;;;;;;;11.73;4.40;;;7.00;47.80;;;;;;4163594;28;20049;-86
2022/03/12 02:36:31;;;;;;;13.05;5.30;;;6.20;47.10;;;;;;4181340;28;20059;-87
2022/03/12 02:38:32;;;;;;;11.13;4.20;;;6.20;47.30;;;;;;4197257;28;20049;-85
2022/03/12 02:40:34;;;;;;;12.90;4.70;;;6.10;47.20;;;;;;4181692;28;20119;-85
2022/03/12 02:42:39;;;;;;;10.60;4.72;;;6.10;47.10;;;;;;4183425;28;20040;-85
2022/03/12 02:44:40;;;;;;;8.73;4.72;;;7.50;47.90;;;;;;4181109;28;20076;-86
2022/03/12 02:46:41;;;;;;;9.00;4.85;;;6.10;47.30;;;;;;4180766;28;20528;-86
2022/03/12 02:48:48;;;;;;;8.20;5.03;;;6.40;47.50;;;;;;4165257;28;20522;-87
2022/03/12 02:50:51;;;;;;;8.10;4.47;;;7.20;47.80;;;;;;4166990;28;20046;-87
2022/03/12 02:52:51;;;;;;;7.60;4.35;;;6.90;47.70;;;;;;4165716;28;20110;-87
2022/03/12 02:54:52;;;;;;;9.70;4.85;;;6.10;47.50;;;;;;4165797;28;20053;-86
2022/03/12 02:56:55;;;;;;;10.35;4.30;;;6.80;47.80;;;;;;4165509;28;20045;-86
2022/03/12 02:58:57;;;;;;;9.18;4.88;;;6.50;47.50;;;;;;4148020;28;20052;-87
2022/03/12 03:00:58;;;;;;;8.13;4.82;;;6.90;47.90;;;;;;4164785;28;20068;-87
2022/03/12 03:03:01;;;;;;;10.48;4.40;;;6.00;47.60;;;;;;4167112;28;20558;-87
2022/03/12 03:05:02;;;;;;;10.77;4.88;;;6.00;47.50;;;;;;4166602;28;20095;-87
2022/03/12 03:07:03;;;;;;;9.73;4.88;;;6.00;47.70;;;;;;4167382;28;20443;-87
2022/03/12 03:09:04;;;;;;;10.10;4.95;;;6.00;47.40;;;;;;4149044;28;20060;-86
2022/03/12 03:11:13;;;;;;;11.20;5.07;;;6.90;48.30;;;;;;4148275;28;20050;-86
2022/03/12 03:13:16;;;;;;;11.32;4.72;;;6.00;47.70;;;;;;4164311;28;20123;-87
2022/03/12 03:15:18;;;;;;;10.65;4.32;;;6.80;48.20;;;;;;4168546;28;20083;-86
2022/03/12 03:17:19;;;;;;;9.95;4.57;;;6.00;47.80;;;;;;4168061;28;20645;-87
2022/03/12 03:19:25;;;;;;;9.68;4.32;;;6.80;48.40;;;;;;4168471;28;20045;-86
2022/03/12 03:21:26;;;;;;;14.70;4.70;;;6.80;48.30;;;;;;4167065;28;20443;-86
2022/03/12 03:23:30;;;;;;;12.27;4.88;;;5.90;48.10;;;;;;4151484;28;20053;-86
2022/03/12 03:25:31;;;;;;;8.95;4.70;;;7.00;48.30;;;;;;4166895;28;20507;-85
2022/03/12 03:27:33;;;;;;;10.82;5.30;;;7.30;48.80;;;;;;4165351;28;20099;-87
2022/03/12 03:29:36;;;;;;;9.63;4.35;;;6.40;48.30;;;;;;4163727;28;20462;-86
2022/03/12 03:31:36;;;;;;;11.90;4.60;;;5.90;48.00;;;;;;4163959;28;20053;-86
2022/03/12 03:33:37;;;;;;;9.32;4.32;;;5.90;48.30;;;;;;4180289;28;20201;-86
2022/03/12 03:35:40;;;;;;;12.93;4.78;;;5.10;47.70;;;;;;4180448;28;20063;-86
2022/03/12 03:37:41;;;;;;;13.05;4.95;;;5.80;48.30;;;;;;4181917;28;20045;-86
2022/03/12 03:39:44;;;;;;;8.85;4.28;;;6.40;48.50;;;;;;4181511;28;20063;-86
2022/03/12 03:41:45;;;;;;;8.80;3.95;;;5.80;48.30;;;;;;4181194;28;20044;-86
2022/03/12 03:43:48;;;;;;;11.18;4.35;;;7.10;49.10;;;;;;4181867;28;20033;-86
2022/03/12 03:45:53;;;;;;;13.50;4.93;;;6.70;49.00;;;;;;4180467;28;20102;-86
2022/03/12 03:47:56;;;;;;;9.25;4.40;;;6.00;48.70;;;;;;4164585;28;20076;-87
2022/03/12 03:49:56;;;;;;;7.93;4.32;;;6.70;49.30;;;;;;4182326;28;20045;-87
2022/03/12 03:51:58;;;;;;;10.15;5.35;;;5.80;48.70;;;;;;4181704;28;20044;-87
2022/03/12 03:53:59;;;;;;;8.93;5.05;;;7.00;49.40;;;;;;4179332;28;20143;-86
2022/03/12 03:56:01;;;;;;;8.50;4.32;;;6.40;48.90;;;;;;4181228;28;20040;-86
2022/03/12 03:58:03;;;;;;;10.65;4.88;;;6.70;49.30;;;;;;4181044;28;20048;-86
2022/03/12 04:00:05;;;;;;;8.13;4.95;;;5.20;48.70;;;;;;4180283;28;20104;-86
2022/03/12 04:02:06;;;;;;;9.45;4.50;;;5.70;48.60;;;;;;4179966;28;20044;-86
2022/03/12 04:04:13;;;;;;;10.60;4.07;;;5.70;48.80;;;;;;4183159;28;20135;-86
2022/03/12 04:06:19;;;;;;;9.70;5.40;;;6.30;49.20;;;;;;4183385;28;20052;-85
2022/03/12 04:08:21;;;;;;;10.50;4.40;;;5.60;48.90;;;;;;4166575;28;20056;-85
2022/03/12 04:10:24;;;;;;;10.68;5.53;;;5.60;49.40;;;;;;4182754;28;20045;-86
2022/03/12 04:12:27;;;;;;;7.78;3.97;;;5.60;49.50;;;;;;4184590;28;20363;-86
2022/03/12 04:14:27;;;;;;;8.07;4.40;;;5.60;49.20;;;;;;4166541;28;20131;-87
2022/03/12 04:16:31;;;;;;;9.13;4.57;;;7.10;49.80;;;;;;4166700;28;20045;-86
2022/03/12 04:18:33;;;;;;;8.27;4.05;;;5.60;49.20;;;;;;4182943;28;20060;-86
2022/03/12 04:20:34;;;;;;;8.88;3.83;;;5.60;49.00;;;;;;4166267;28;20079;-86
2022/03/12 04:22:39;;;;;;;8.00;4.18;;;5.60;49.20;;;;;;4183162;28;20029;-86
2022/03/12 04:24:40;;;;;;;10.07;4.65;;;5.50;49.30;;;;;;4183624;28;20041;-86
2022/03/12 04:26:42;;;;;;;11.02;4.00;;;5.50;49.40;;;;;;4183692;28;20124;-86
2022/03/12 04:28:43;;;;;;;9.55;4.38;;;6.50;49.70;;;;;;4166010;28;20050;-86
2022/03/12 04:30:45;;;;;;;10.70;4.75;;;6.50;50.10;;;;;;4166590;28;20130;-86
2022/03/12 04:32:46;;;;;;;8.90;4.40;;;4.30;48.80;;;;;;4184138;28;20056;-86
2022/03/12 04:34:47;;;;;;;10.95;4.47;;;5.40;49.40;;;;;;4184320;28;20421;-86
2022/03/12 04:36:48;;;;;;;11.55;5.20;;;;;;;;;;4165651;28;20084;-85
2022/03/12 04:38:49;;;;;;;10.02;4.03;;;5.40;48.80;;;;;;4184568;28;20052;-86
2022/03/12 04:40:50;;;;;;;9.35;4.72;;;6.10;49.90;;;;;;4183373;28;20037;-86
2022/03/12 04:42:52;;;;;;;8.95;4.28;;;5.40;49.90;;;;;;4183152;28;20219;-86
2022/03/12 04:44:55;;;;;;;9.60;5.05;;;5.30;49.50;;;;;;4184433;28;20158;-85
2022/03/12 04:46:56;;;;;;;8.95;4.00;;;6.70;50.40;;;;;;4183677;28;20546;-85
2022/03/12 04:48:57;;;;;;;8.95;4.50;;;5.30;49.80;;;;;;4181070;28;20041;-86
2022/03/12 04:50:59;;;;;;;10.27;4.63;;;6.40;50.40;;;;;;4183044;28;20079;-87
2022/03/12 04:53:01;;;;;;;8.27;4.30;;;6.20;50.80;;;;;;4166951;28;20128;-87
2022/03/12 04:55:14;;;;;;;9.23;4.20;;;5.80;50.20;;;;;;4183880;28;20427;-87
2022/03/12 04:57:14;;;;;;;7.75;4.15;;;5.30;50.00;;;;;;4184133;28;20083;-86
2022/03/12 04:59:15;;;;;;;8.40;4.35;;;5.60;50.40;;;;;;4184460;28;20032;-86
2022/03/12 05:01:16;;;;;;;9.60;4.03;;;5.30;50.00;;;;;;4183696;28;20040;-86
2022/03/12 05:03:20;;;;;;;11.68;4.95;;;5.30;50.10;;;;;;4184010;28;20120;-87
2022/03/12 05:05:22;;;;;;;9.77;5.38;;;6.70;50.60;;;;;;4184139;28;20052;-87
2022/03/12 05:07:24;;;;;;;10.32;4.35;;;5.20;50.20;;;;;;4166277;28;20050;-87
2022/03/12 05:09:26;;;;;;;7.20;4.47;;;5.20;50.20;;;;;;4182327;28;20441;-86
2022/03/12 05:11:26;;;;;;;8.35;4.07;;;6.10;50.80;;;;;;4183693;28;20057;-86
2022/03/12 05:13:28;;;;;;;8.18;4.47;;;6.40;50.80;;;;;;4183733;28;20072;-86
2022/03/12 05:15:34;;;;;;;8.50;4.10;;;4.50;49.90;;;;;;4181675;28;20075;-86
2022/03/12 05:17:39;;;;;;;9.45;3.97;;;5.20;50.10;;;;;;4165986;28;20111;-86
2022/03/12 05:19:40;;;;;;;9.40;4.07;;;6.10;50.90;;;;;;4166160;28;20077;-87
2022/03/12 05:21:41;;;;;;;8.13;4.15;;;5.40;50.50;;;;;;4178838;28;20139;-87
2022/03/12 05:23:42;;;;;;;10.65;4.40;;;6.70;51.00;;;;;;4183271;28;20044;-87
2022/03/12 05:25:48;;;;;;;8.55;4.35;;;6.60;51.20;;;;;;4183481;28;20527;-86
2022/03/12 05:27:53;;;;;;;8.50;4.30;;;6.60;50.80;;;;;;4182488;28;20564;-87
2022/03/12 05:29:54;;;;;;;8.68;4.03;;;5.20;50.10;;;;;;4165672;28;20446;-87
2022/03/12 05:31:55;;;;;;;13.82;3.88;;;6.00;50.60;;;;;;4181573;28;20041;-87
2022/03/12 05:33:57;;;;;;;8.45;3.95;;;6.40;51.20;;;;;;4182208;28;20057;-87
2022/03/12 05:35:59;;;;;;;14.55;4.18;;;5.60;50.60;;;;;;4181873;28;20071;-87
2022/03/12 05:38:01;;;;;;;8.02;4.07;;;5.20;50.40;;;;;;4183142;28;20040;-87
2022/03/12 05:40:04;;;;;;;6.93;3.67;;;5.30;50.40;;;;;;4181644;28;20052;-87
2022/03/12 05:42:05;;;;;;;8.70;4.22;;;5.10;50.10;;;;;;4183337;28;20499;-86
2022/03/12 05:44:06;;;;;;;11.63;4.40;;;5.20;50.30;;;;;;4181912;28;20045;-86
2022/03/12 05:46:07;;;;;;;8.27;4.10;;;5.10;50.60;;;;;;4183251;28;20040;-87
2022/03/12 05:48:10;;;;;;;8.75;3.97;;;5.20;50.80;;;;;;4182582;28;20243;-87
2022/03/12 05:50:14;;;;;;;12.15;4.45;;;5.10;50.70;;;;;;4181964;28;20087;-86
2022/03/12 05:52:16;;;;;;;10.05;4.45;;;5.10;50.40;;;;;;4182227;28;20037;-86
2022/03/12 05:54:17;;;;;;;12.90;4.97;;;5.10;50.60;;;;;;4183058;28;20045;-87
2022/03/12 05:56:18;;;;;;;14.40;4.70;;;5.80;51.00;;;;;;4183462;28;20380;-86
2022/03/12 05:58:21;;;;;;;9.45;4.32;;;6.20;51.50;;;;;;4165481;28;20055;-87
2022/03/12 06:00:22;;;;;;;14.73;5.10;;;5.60;51.20;;;;;;4182237;28;20055;-87
2022/03/12 06:02:23;;;;;;;11.68;5.38;;;5.10;50.90;;;;;;4149105;28;20514;-87
2022/03/12 06:04:27;;;;;;;9.05;4.15;;;6.00;51.40;;;;;;4165804;28;20474;-86
2022/03/12 06:06:35;;;;;;;8.70;4.68;;;5.80;51.20;;;;;;4148828;28;20049;-86
2022/03/12 06:08:38;;;;;;;12.05;4.88;;;5.10;50.80;;;;;;4165158;28;20053;-86
2022/03/12 06:10:40;;;;;;;9.13;4.85;;;5.10;51.00;;;;;;4164865;28;20055;-86
2022/03/12 06:12:43;;;;;;;10.05;4.15;;;6.20;51.50;;;;;;4164850;28;20103;-86
2022/03/12 06:14:56;;;;;;;8.13;4.28;;;6.30;51.40;;;;;;4166625;28;20043;-86
2022/03/12 06:16:56;;;;;;;10.23;4.35;;;5.60;51.40;;;;;;4166669;28;20088;-86
2022/03/12 06:18:57;;;;;;;9.38;4.20;;;5.10;51.30;;;;;;4165763;28;20053;-86
2022/03/12 06:20:58;;;;;;;9.32;4.78;;;6.10;51.90;;;;;;4165231;28;20150;-86
2022/03/12 06:22:58;;;;;;;9.23;4.40;;;5.40;51.40;;;;;;4181898;28;20079;-87
2022/03/12 06:24:59;;;;;;;8.02;4.20;;;5.00;51.40;;;;;;4183381;28;20455;-87
2022/03/12 06:27:00;;;;;;;10.23;4.07;;;4.20;51.10;;;;;;4183006;28;20041;-86
2022/03/12 06:29:03;;;;;;;7.38;3.80;;;5.00;51.50;;;;;;4183276;28;20051;-86
2022/03/12 06:31:04;;;;;;;13.48;4.00;;;5.60;51.50;;;;;;4181895;28;20048;-87
2022/03/12 06:33:06;;;;;;;10.10;4.28;;;5.90;52.00;;;;;;4182865;28;20059;-86
2022/03/12 06:35:07;;;;;;;12.27;4.60;;;4.90;51.30;;;;;;4183846;28;20068;-86
2022/03/12 06:37:09;;;;;;;9.48;4.25;;;5.00;51.60;;;;;;4167479;28;20056;-86
2022/03/12 06:39:10;;;;;;;7.55;3.83;;;5.00;51.20;;;;;;4183742;28;20051;-86
2022/03/12 06:41:11;;;;;;;7.78;3.70;;;5.10;51.50;;;;;;4183378;28;20104;-86
2022/03/12 06:43:18;;;;;;;9.77;4.22;;;5.50;51.80;;;;;;4182314;28;20053;-86
2022/03/12 06:45:19;;;;;;;11.73;4.78;;;5.00;51.50;;;;;;4184021;28;20041;-87
2022/03/12 06:47:22;;;;;;;8.27;4.07;;;5.00;51.30;;;;;;4184773;28;20059;-87
2022/03/12 06:49:23;;;;;;;7.95;3.83;;;5.10;51.30;;;;;;4183648;28;20519;-87
2022/03/12 06:51:24;;;;;;;9.77;4.07;;;6.50;52.20;;;;;;4182097;28;20083;-87
2022/03/12 06:53:25;;;;;;;9.18;4.28;;;5.10;51.50;;;;;;4165366;28;20123;-87
2022/03/12 06:55:28;;;;;;;8.43;4.35;;;5.10;51.60;;;;;;4165879;28;20075;-87
2022/03/12 06:57:30;;;;;;;9.40;4.00;;;5.30;51.40;;;;;;4180836;28;20049;-87
2022/03/12 06:59:31;;;;;;;8.13;4.43;;;6.00;51.80;;;;;;4165484;28;20132;-87
2022/03/12 07:01:32;;;;;;;8.25;4.03;;;5.10;51.00;;;;;;4183465;28;20167;-87
2022/03/12 07:03:33;;;;;;;9.68;4.90;;;5.10;51.10;;;;;;4183653;28;20090;-86
2022/03/12 07:05:34;;;;;;;8.43;4.18;;;5.90;51.40;;;;;;4165680;28;20049;-86
2022/03/12 07:07:35;;;;;;;7.97;4.15;;;5.10;51.10;;;;;;4183542;28;20072;-86
2022/03/12 07:09:36;;;;;;;8.10;4.93;;;5.70;51.70;;;;;;4165023;28;20053;-86
2022/03/12 07:11:37;;;;;;;7.70;3.72;;;5.50;51.30;;;;;;4183172;28;20395;-87
2022/03/12 07:13:38;;;;;;;11.38;4.22;;;6.60;51.90;;;;;;4165437;28;20049;-87
2022/03/12 07:15:39;;;;;;;13.07;4.05;;;6.30;51.70;;;;;;4182942;28;20049;-87
2022/03/12 07:17:43;;;;;;;10.02;4.03;;;5.70;51.50;;;;;;4182879;28;20483;-87
2022/03/12 07:19:44;;;;;;;9.48;4.38;;;6.60;51.90;;;;;;4181430;28;20052;-87
2022/03/12 07:21:45;;;;;;;8.38;4.50;;;5.30;51.20;;;;;;4182534;28;20521;-87
2022/03/12 07:23:45;;;;;;;6.93;4.38;;;6.40;51.80;;;;;;4164392;28;20059;-86
2022/03/12 07:25:47;;;;;;;9.15;4.18;;;6.10;51.50;;;;;;4164362;28;20068;-87
2022/03/12 07:27:48;;;;;;;9.05;4.07;;;6.60;51.90;;;;;;4183425;28;20091;-85
2022/03/12 07:29:49;;;;;;;13.45;4.30;;;6.70;52.10;;;;;;4182389;28;20049;-86
2022/03/12 07:31:50;;;;;;;7.55;3.53;;;5.70;51.20;;;;;;4182358;28;20052;-86
2022/03/12 07:33:52;;;;;;;8.55;3.85;;;5.80;50.70;;;;;;4181723;28;20064;-86
2022/03/12 07:35:53;;;;;;;15.75;4.13;;;5.90;51.40;;;;;;4179964;28;20053;-86
2022/03/12 07:37:58;;;;;;;9.50;3.97;;;5.90;50.50;;;;;;4183321;28;20407;-87
2022/03/12 07:39:59;;;;;;;8.93;4.25;;;7.20;51.60;;;;;;4167369;28;20176;-86
2022/03/12 07:42:02;;;;;;;7.80;4.60;;;6.20;50.90;;;;;;4167531;28;20180;-86
2022/03/12 07:44:05;;;;;;;11.38;4.10;;;6.30;50.70;;;;;;4167382;28;20407;-86
2022/03/12 07:46:06;;;;;;;6.93;4.10;;;6.20;50.40;;;;;;4168097;28;20061;-87
2022/03/12 07:48:07;;;;;;;7.18;4.25;;;6.40;50.70;;;;;;4185426;28;20049;-86
2022/03/12 07:50:09;;;;;;;8.77;4.32;;;6.50;50.30;;;;;;4169420;28;20056;-87
2022/03/12 07:52:11;;;;;;;11.00;4.32;;;;;;;;;;4169430;28;20076;-86
2022/03/12 07:54:14;;;;;;;10.65;4.35;;;;;;;;;;4187004;28;20045;-87
2022/03/12 07:56:17;;;;;;;8.82;4.72;;;;;;;;;;4186115;28;20102;-86
2022/03/12 07:58:20;;;;;;;10.95;4.72;;;;;;;;;;4186599;28;20059;-86
2022/03/12 08:00:28;;;;;;;9.38;4.90;;;;;;;;;;4184577;28;20056;-86
2022/03/12 08:02:29;;;;;;;9.85;5.28;;;;;;;;;;4183657;28;20060;-87
2022/03/12 08:04:33;;;;;;;6.85;3.85;;;;;;;;;;4183343;28;20522;-87
2022/03/12 08:06:34;;;;;;;17.30;4.15;;;;;;;;;;4183224;28;20111;-85
2022/03/12 08:08:36;;;;;;;10.93;4.53;;;;;;;;;;4167836;28;20172;-86
2022/03/12 08:11:25;;;;;;;8.95;4.10;;;;;;;;;;4167406;28;20120;-86
2022/03/12 08:12:58;;;;;;;24.02;5.95;;;;;;;;;;4183965;28;20053;-84
2022/03/12 08:15:02;;;;;;;7.50;4.15;;;;;;;;;;4181951;28;20518;-84
2022/03/12 08:17:05;;;;;;;11.10;4.55;;;;;;;;;;4183218;28;20087;-85
2022/03/12 08:19:07;;;;;;;8.50;4.57;;;;;;;;;;4182755;28;20048;-85
2022/03/12 08:21:08;;;;;;;10.15;4.72;;;;;;;;;;4181732;28;20037;-84
2022/03/12 08:23:10;;;;;;;10.23;4.93;;;;;;;;;;4183144;28;20041;-85
2022/03/12 08:25:14;;;;;;;7.63;4.28;;;;;;;;;;4185735;28;20592;-85
2022/03/12 08:27:15;;;;;;;13.77;4.97;;;;;;;;;;4184311;28;20048;-84
2022/03/12 08:29:18;;;;;;;8.98;4.32;;;;;;;;;;4185089;28;20087;-85
2022/03/12 08:31:20;;;;;;;7.75;4.57;;;;;;;;;;4185145;28;20518;-85
2022/03/12 08:33:21;;;;;;;9.60;4.60;;;;;;;;;;4182951;28;20060;-84
2022/03/12 08:35:22;;;;;;;9.40;4.40;;;;;;;;;;4185518;28;20505;-85
2022/03/12 08:37:23;;;;;;;10.40;4.43;;;;;;;;;;4184771;28;20387;-84
2022/03/12 08:39:24;;;;;;;8.13;3.85;;;;;;;;;;4184519;28;20119;-85
2022/03/12 08:41:27;;;;;;;10.90;5.35;;;;;;;;;;4185169;28;20045;-84
2022/03/12 08:43:28;;;;;;;9.82;4.63;;;;;;;;;;4184205;28;20041;-84
2022/03/12 08:45:30;;;;;;;10.52;4.78;;;;;;;;;;4185806;28;20128;-84
2022/03/12 08:47:31;;;;;;;11.02;5.20;;;;;;;;;;4185594;28;20044;-85
2022/03/12 08:49:32;;;;;;;11.05;4.55;;;;;;;;;;4182963;28;20402;-85
2022/03/12 08:51:35;;;;;;;9.85;4.78;;;;;;;;;;4166023;28;20076;-84
2022/03/12 08:53:36;;;;;;;12.00;5.25;;;;;;;;;;4183798;28;20165;-84
2022/03/12 08:55:40;;;;;;;9.60;5.22;;;;;;;;;;4184158;28;20045;-85
2022/03/12 08:57:41;;;;;;;9.45;4.18;;;;;;;;;;4184210;28;20045;-85
2022/03/12 08:59:43;;;;;;;9.32;4.90;;;;;;;;;;4184116;28;20049;-85
2022/03/12 09:01:45;;;;;;;14.60;5.78;;;;;;;;;;4183517;28;20399;-84
2022/03/12 09:03:47;;;;;;;9.18;5.03;;;;;;;;;;4180007;28;20048;-85
2022/03/12 09:05:49;;;;;;;10.98;5.00;;;;;;;;;;4182095;28;20094;-84
2022/03/12 09:07:52;;;;;;;9.77;4.85;;;;;;;;;;4181382;28;20051;-85
2022/03/12 09:09:53;;;;;;;8.73;4.85;;;;;;;;;;4182585;28;20045;-84
2022/03/12 09:11:54;;;;;;;11.85;4.82;;;;;;;;;;4183896;28;20098;-84
2022/03/12 09:13:56;;;;;;;9.40;5.35;;;;;;;;;;4175317;28;20037;-85
2022/03/12 09:15:57;;;;;;;11.07;5.22;;;;;;;;;;4165837;28;20046;-85
2022/03/12 09:17:58;;;;;;;7.85;4.57;;;;;;;;;;4165844;28;20041;-85
2022/03/12 09:19:59;;;;;;;9.32;5.13;;;;;;;;;;4174690;28;20055;-85
2022/03/12 09:22:03;;;;;;;8.80;4.57;;;;;;;;;;4183334;28;20156;-87
2022/03/12 09:24:04;;;;;;;9.48;4.97;;;;;;;;;;4166086;28;20515;-86
2022/03/12 09:26:05;;;;;;;8.60;5.13;;;;;;;;;;4182148;28;20051;-86
2022/03/12 09:28:07;;;;;;;10.90;5.10;;;;;;;;;;4165331;28;20041;-86
2022/03/12 09:30:08;;;;;;;11.45;4.90;;;;;;;;;;4182486;28;20080;-85
2022/03/12 09:32:09;;;;;;;12.00;5.35;;;;;;;;;;4182733;28;20106;-87
2022/03/12 09:34:11;;;;;;;9.05;4.78;;;;;;;;;;4182527;28;20205;-86
2022/03/12 09:36:13;;;;;;;14.20;5.32;;;;;;;;;;4182672;28;20558;-86
2022/03/12 09:38:15;;;;;;;10.88;5.43;;;;;;;;;;4184844;28;20045;-86
2022/03/12 09:40:16;;;;;;;9.70;5.35;;;;;;;;;;4182880;28;20100;-86
2022/03/12 09:42:18;;;;;;;8.70;5.45;;;;;;;;;;4182028;28;20051;-86
2022/03/12 09:44:20;;;;;;;9.02;4.72;;;;;;;;;;4183359;28;20044;-86
2022/03/12 09:46:22;;;;;;;9.02;4.88;;;;;;;;;;4183806;28;20056;-86
2022/03/12 09:48:23;;;;;;;8.27;4.97;;;;;;;;;;4182854;28;20087;-85
2022/03/12 09:50:24;;;;;;;9.13;4.70;;;;;;;;;;4182872;28;20033;-85
2022/03/12 09:52:26;;;;;;;9.20;4.43;;;;;;;;;;4182049;28;20127;-86
2022/03/12 09:54:30;;;;;;;10.18;4.60;;;;;;;;;;4183838;28;20055;-88
2022/03/12 09:56:31;;;;;;;9.45;4.93;;;;;;;;;;4169698;28;20524;-86
2022/03/12 09:58:33;;;;;;;10.38;4.93;;;;;;;;;;4165871;28;20057;-86
2022/03/12 10:00:35;;;;;;;9.80;5.00;;;;;;;;;;4182965;28;20052;-86
2022/03/12 10:02:38;;;;;;;12.13;4.53;;;;;;;;;;4185469;28;20092;-86
2022/03/12 10:04:40;;;;;;;10.05;5.00;;;;;;;;;;4187295;28;20060;-86
2022/03/12 10:06:44;;;;;;;11.90;5.53;;;;;;;;;;4168468;28;20123;-85
2022/03/12 10:08:46;;;;;;;13.07;5.57;;;;;;;;;;4184921;28;20092;-86
2022/03/12 10:10:47;;;;;;;11.70;5.88;;;;;;;;;;4184021;28;20457;-87
2022/03/12 10:12:49;;;;;;;13.57;5.80;;;;;;;;;;4184944;28;20090;-86
2022/03/12 10:14:51;;;;;;;10.48;5.78;;;;;;;;;;4165259;28;20049;-86
2022/03/12 10:16:53;;;;;;;10.15;4.85;;;;;;;;;;4182912;28;20076;-85
2022/03/12 10:18:54;;;;;;;11.43;5.50;;;;;;;;;;4182905;28;20083;-85
2022/03/12 10:20:59;;;;;;;9.85;5.85;;;;;;;;;;4182016;28;20124;-84
2022/03/12 10:23:02;;;;;;;10.63;4.95;;;;;;;;;;4183253;28;20052;-86
2022/03/12 10:25:04;;;;;;;9.50;5.85;;;;;;;;;;4183938;28;20070;-86
2022/03/12 10:27:09;;;;;;;9.50;5.00;;;;;;;;;;4181768;28;20091;-86
2022/03/12 10:29:10;;;;;;;10.93;5.40;;;;;;;;;;4182855;28;20119;-86
2022/03/12 10:31:12;;;;;;;10.02;5.82;;;;;;;;;;4165500;28;20049;-86
2022/03/12 10:33:23;;;;;;;10.13;5.93;;;;;;;;;;4180799;28;20053;-86
2022/03/12 10:35:25;;;;;;;11.05;5.35;;;;;;;;;;4181101;28;20052;-86
2022/03/12 10:37:28;;;;;;;9.43;5.03;;;;;;;;;;4165508;28;20049;-86
2022/03/12 10:39:37;;;;;;;11.13;5.50;;;;;;;;;;4182127;28;20037;-86
2022/03/12 10:41:38;;;;;;;10.07;5.15;;;;;;;;;;4182425;28;20406;-86
2022/03/12 10:43:44;;;;;;;8.68;5.60;;;;;;;;;;4180678;28;20106;-86
2022/03/12 10:45:47;;;;;;;11.25;5.82;;;;;;;;;;4164751;28;20041;-86
2022/03/12 10:47:50;;;;;;;8.40;5.00;;;;;;;;;;4181291;28;20083;-86
2022/03/12 10:49:57;;;;;;;11.52;6.10;;;;;;;;;;4164626;28;20053;-86
2022/03/12 10:52:01;;;;;;;10.23;5.60;;;;;;;;;;4182911;28;20057;-86
2022/03/12 10:54:05;;;;;;;10.77;5.47;;;;;;;;;;4182329;28;20060;-87
2022/03/12 10:56:07;;;;;;;11.77;5.78;;;;;;;;;;4181927;28;20442;-86
2022/03/12 10:58:12;;;;;;;9.77;5.78;;;;;;;;;;4180572;28;20495;-86
2022/03/12 11:00:13;;;;;;;12.27;5.38;;;;;;;;;;4178784;28;20450;-85
2022/03/12 11:02:15;;;;;;;9.02;5.25;;;;;;;;;;4182118;28;20511;-85
2022/03/12 11:04:18;;;;;;;9.07;5.72;;;;;;;;;;4164767;28;20050;-85